Terminal Aerodrome Forecast
Issued by NWS Tiyan, Guam

Home | Current Version | Previous Version | Text Only | Print | Product List | Glossary On
Versions: 1 2 3 4 5 6 7 8 9 10 11 12 13 14 15 16 17 18 19
000
FTPQ31 PGUM 230400 AAE
TAFPQ
TAF AMD
PGUM 230406Z 2304/2406 05007G14KT P6SM VCSH FEW016 SCT040 BKN120
      TEMPO 2304/2306 -SHRA SCT010 BKN030 OVC050
     FM231200 11007KT P6SM VCSH FEW015 SCT040=

USA.gov is the U.S. government's official web portal to all federal, state and local government web resources and services.